createdAt,value
2022-09-05T00:04:38.257Z,98891.50
2022-09-05T00:10:08.357Z,98896.31
2022-09-05T00:15:28.123Z,98896.25
2022-09-05T00:24:37.273Z,98888.84
2022-09-05T00:26:22.315Z,98887.28
2022-09-05T00:31:54.744Z,98888.47
2022-09-05T00:37:01.936Z,98886.31
2022-09-05T00:42:11.610Z,98897.13
2022-09-05T00:47:38.891Z,98897.88
2022-09-05T00:52:50.505Z,98892.56
2022-09-05T00:58:34.362Z,98894.84
2022-09-05T01:04:05.979Z,98905.91
2022-09-05T01:09:17.232Z,98903.09
2022-09-05T01:14:42.349Z,98903.25
2022-09-05T01:20:19.359Z,98907.00
2022-09-05T01:25:46.963Z,98909.66
2022-09-05T01:31:12.411Z,98904.97
2022-09-05T01:36:31.621Z,98904.31
2022-09-05T01:41:44.231Z,98904.31
2022-09-05T01:47:01.864Z,98905.34
2022-09-05T01:52:25.627Z,98904.91
2022-09-05T01:57:38.549Z,98909.69
2022-09-05T02:03:01.754Z,98911.06
2022-09-05T02:08:30.338Z,98900.97
2022-09-05T02:13:57.193Z,98911.38
2022-09-05T02:19:15.047Z,98904.16
2022-09-05T02:24:25.764Z,98899.00
2022-09-05T02:29:38.106Z,98896.84
2022-09-05T02:34:53.851Z,98900.59
2022-09-05T02:45:09.645Z,98895.03
2022-09-05T02:45:40.603Z,98906.47
2022-09-05T02:56:42.507Z,98897.19
2022-09-05T02:57:43.080Z,98901.13
2022-09-05T03:02:26.125Z,98898.78
2022-09-05T03:07:48.101Z,98905.63
2022-09-05T03:13:28.681Z,98893.44
2022-09-05T03:19:14.771Z,98903.41
2022-09-05T03:24:56.001Z,98903.81
2022-09-05T03:30:12.305Z,98903.25
2022-09-05T03:35:46.636Z,98903.97
2022-09-05T03:41:12.032Z,98907.06
2022-09-05T03:46:50.778Z,98917.59
2022-09-05T03:57:10.744Z,98915.31
2022-09-05T03:58:18.219Z,98906.56
2022-09-05T04:07:08.772Z,98904.94
2022-09-05T04:08:59.189Z,98906.53
2022-09-05T04:14:11.063Z,98908.25
2022-09-05T04:19:22.780Z,98899.16
2022-09-05T04:24:33.003Z,98910.53
2022-09-05T04:29:59.412Z,98907.97
2022-09-05T04:35:25.392Z,98908.69
2022-09-05T04:40:40.446Z,98917.53
2022-09-05T04:45:54.052Z,98931.59
2022-09-05T04:51:13.175Z,98931.78
2022-09-05T04:56:23.711Z,98945.53
2022-09-05T05:06:02.382Z,98949.25
2022-09-05T05:07:10.127Z,98959.41
2022-09-05T05:17:25.367Z,98964.66
2022-09-05T05:18:49.092Z,98959.91
2022-09-05T05:23:31.852Z,98962.44
2022-09-05T05:28:52.130Z,98971.28
2022-09-05T05:34:03.843Z,98970.25
2022-09-05T05:39:22.538Z,98971.63
2022-09-05T05:44:30.783Z,98982.63
2022-09-05T05:49:49.714Z,98973.59
2022-09-05T05:55:52.368Z,98969.97
2022-09-05T06:00:36.424Z,98978.78
2022-09-05T06:06:11.464Z,98966.31
2022-09-05T06:14:51.045Z,98978.28
2022-09-05T06:17:35.916Z,98988.69
2022-09-05T06:23:05.011Z,98984.53
2022-09-05T06:28:23.077Z,98997.19
2022-09-05T06:33:48.503Z,98992.50
2022-09-05T06:39:08.569Z,98985.69
2022-09-05T06:44:28.416Z,98987.44
2022-09-05T06:49:50.455Z,98987.91
2022-09-05T06:55:28.018Z,98993.28
2022-09-05T07:00:42.987Z,98988.13
2022-09-05T07:05:57.848Z,98987.38
2022-09-05T07:11:15.765Z,98980.72
2022-09-05T07:16:38.015Z,98993.53
2022-09-05T07:21:49.067Z,98993.31
2022-09-05T07:27:01.721Z,98986.41
2022-09-05T07:32:11.868Z,98988.91
2022-09-05T07:37:24.262Z,98989.72
2022-09-05T07:42:37.266Z,98997.63
2022-09-05T07:47:52.028Z,98998.78
2022-09-05T07:56:55.051Z,98993.22
2022-09-05T07:58:26.589Z,98993.56
2022-09-05T08:03:34.109Z,98986.94
2022-09-05T08:08:55.975Z,98987.41
2022-09-05T08:14:40.755Z,98987.91
2022-09-05T08:20:12.825Z,98981.59
2022-09-05T08:25:21.296Z,98984.09
2022-09-05T08:30:30.550Z,98986.84
2022-09-05T08:35:45.028Z,98979.66
2022-09-05T08:40:56.347Z,98980.88
2022-09-05T08:46:42.292Z,98978.91
2022-09-05T08:51:54.072Z,98969.88
2022-09-05T08:57:05.250Z,98965.56
2022-09-05T09:02:55.033Z,98962.06
2022-09-05T09:08:16.098Z,98955.38
2022-09-05T09:13:34.646Z,98949.91
2022-09-05T09:19:06.007Z,98954.38
2022-09-05T09:24:27.733Z,98942.81
2022-09-05T09:29:39.192Z,98938.38
2022-09-05T09:34:56.466Z,98942.75
2022-09-05T09:40:24.655Z,98942.47
2022-09-05T09:45:49.316Z,98936.72
2022-09-05T09:51:14.589Z,98942.75
2022-09-05T09:56:51.034Z,98932.31
2022-09-05T10:04:05.733Z,98924.91
2022-09-05T10:10:58.386Z,98928.16
2022-09-05T10:14:24.242Z,98923.59
2022-09-05T10:20:11.716Z,98909.09
2022-09-05T10:25:51.426Z,98915.06
2022-09-05T10:32:16.324Z,98909.84
2022-09-05T10:36:41.950Z,98905.63
2022-09-05T10:41:51.048Z,98904.25
2022-09-05T10:47:09.596Z,98882.91
2022-09-05T10:52:19.277Z,98889.97
2022-09-05T10:57:38.349Z,98884.31
2022-09-05T11:02:49.153Z,98881.31
2022-09-05T11:08:07.290Z,98876.44
2022-09-05T11:13:23.970Z,98874.41
2022-09-05T11:18:55.200Z,98867.03
2022-09-05T11:24:10.398Z,98860.00
2022-09-05T11:29:19.030Z,98852.03
2022-09-05T11:39:57.301Z,98849.41
2022-09-05T11:40:44.818Z,98847.34
2022-09-05T11:46:23.593Z,98840.31
2022-09-05T11:52:07.667Z,98849.06
2022-09-05T11:57:34.454Z,98844.53
2022-09-05T12:03:12.203Z,98839.41
2022-09-05T12:08:43.412Z,98840.59
2022-09-05T12:13:54.788Z,98836.28
2022-09-05T12:19:19.367Z,98831.41
2022-09-05T12:25:15.559Z,98830.69
2022-09-05T12:30:02.772Z,98822.91
2022-09-05T12:36:07.973Z,98825.41
2022-09-05T12:41:36.786Z,98822.81
2022-09-05T12:46:14.995Z,98818.13
2022-09-05T12:51:46.139Z,98817.41
2022-09-05T13:02:01.489Z,98826.25
2022-09-05T13:03:07.315Z,98813.69
2022-09-05T13:07:59.400Z,98813.09
2022-09-05T13:14:53.613Z,98818.38
2022-09-05T13:18:44.441Z,98812.44
2022-09-05T13:24:00.998Z,98809.84
2022-09-05T13:29:16.807Z,98804.47
2022-09-05T13:38:17.618Z,98812.44
2022-09-05T13:39:57.332Z,98801.47
2022-09-05T13:45:06.397Z,98786.63
2022-09-05T13:50:24.044Z,98792.75
2022-09-05T13:55:41.590Z,98780.47
2022-09-05T14:01:14.504Z,98776.59
2022-09-05T14:06:48.921Z,98773.66
2022-09-05T14:12:05.441Z,98764.66
2022-09-05T14:23:03.859Z,98756.59
2022-09-05T14:28:16.013Z,98757.41
2022-09-05T14:37:45.452Z,98759.78
2022-09-05T14:39:31.986Z,98756.19
2022-09-05T14:44:51.769Z,98757.81
2022-09-05T14:50:17.926Z,98749.41
2022-09-05T14:55:25.721Z,98741.03
2022-09-05T15:02:51.542Z,98741.09
2022-09-05T15:05:59.006Z,98731.59
2022-09-05T15:12:17.200Z,98728.59
2022-09-05T15:16:40.474Z,98725.31
2022-09-05T15:21:48.316Z,98732.72
2022-09-05T15:26:54.953Z,98723.00
2022-09-05T15:32:16.269Z,98729.06
2022-09-05T15:37:31.901Z,98726.53
2022-09-05T15:42:38.508Z,98727.69
2022-09-05T15:47:50.657Z,98718.88
2022-09-05T15:52:58.807Z,98716.69
2022-09-05T15:58:07.513Z,98711.69
2022-09-05T16:05:10.296Z,98707.81
2022-09-05T16:10:36.592Z,98701.44
2022-09-05T16:14:30.290Z,98705.28
2022-09-05T16:23:20.280Z,98701.13
2022-09-05T16:25:11.380Z,98698.09
2022-09-05T16:30:23.911Z,98709.19
2022-09-05T16:35:29.161Z,98697.81
2022-09-05T16:40:41.368Z,98700.59
2022-09-05T16:45:52.041Z,98692.78
2022-09-05T16:51:13.456Z,98689.91
2022-09-05T16:56:26.456Z,98694.31
2022-09-05T17:01:48.773Z,98696.94
2022-09-05T17:07:06.320Z,98696.16
2022-09-05T17:12:22.065Z,98699.47
2022-09-05T17:18:19.411Z,98704.13
2022-09-05T17:27:42.800Z,98693.53
2022-09-05T17:29:29.819Z,98691.56
2022-09-05T17:34:43.432Z,98689.66
2022-09-05T17:39:56.608Z,98693.41
2022-09-05T17:45:15.666Z,98691.72
2022-09-05T17:50:23.206Z,98685.88
2022-09-05T17:55:58.761Z,98691.69
2022-09-05T18:01:26.786Z,98690.72
2022-09-05T18:06:35.819Z,98696.38
2022-09-05T18:17:59.965Z,98701.41
2022-09-05T18:29:19.251Z,98695.75
2022-09-05T18:34:45.568Z,98694.41
2022-09-05T18:40:07.198Z,98694.38
2022-09-05T18:45:16.466Z,98702.81
2022-09-05T18:50:27.943Z,98705.78
2022-09-05T18:56:14.249Z,98704.75
2022-09-05T19:01:22.727Z,98704.09
2022-09-05T19:06:38.000Z,98715.22
2022-09-05T19:11:55.371Z,98705.47
2022-09-05T19:17:07.602Z,98711.56
2022-09-05T19:23:08.625Z,98709.38
2022-09-05T19:34:56.295Z,98709.44
2022-09-05T19:37:13.890Z,98715.44
2022-09-05T19:41:13.581Z,98710.69
2022-09-05T19:47:45.139Z,98712.19
2022-09-05T19:50:01.696Z,98717.91
2022-09-05T19:55:21.234Z,98728.09
2022-09-05T20:00:31.102Z,98728.38
2022-09-05T20:05:36.022Z,98716.19
2022-09-05T20:10:40.721Z,98722.13
2022-09-05T20:15:48.043Z,98717.53
2022-09-05T20:20:56.092Z,98710.66
2022-09-05T20:31:19.391Z,98710.53
2022-09-05T20:42:14.070Z,98710.53
2022-09-05T20:43:14.981Z,98710.59
2022-09-05T20:50:35.709Z,98709.34
2022-09-05T20:54:18.233Z,98704.75
2022-09-05T20:58:19.292Z,98703.50
2022-09-05T21:03:36.776Z,98706.50
2022-09-05T21:08:41.942Z,98705.03
2022-09-05T21:13:53.534Z,98718.78
2022-09-05T21:19:00.965Z,98724.03
2022-09-05T21:24:16.117Z,98723.19
2022-09-05T21:29:32.805Z,98723.41
2022-09-05T21:34:45.339Z,98729.28
2022-09-05T21:40:00.529Z,98720.50
2022-09-05T21:47:42.244Z,98708.13
2022-09-05T21:50:39.749Z,98708.38
2022-09-05T21:59:21.315Z,98702.13
2022-09-05T22:01:09.045Z,98697.97
2022-09-05T22:06:18.778Z,98707.25
2022-09-05T22:11:23.830Z,98713.78
2022-09-05T22:16:34.530Z,98692.56
2022-09-05T22:21:43.041Z,98696.75
2022-09-05T22:27:12.267Z,98699.72
2022-09-05T22:32:28.562Z,98684.56
2022-09-05T22:37:44.567Z,98696.56
2022-09-05T22:42:58.239Z,98685.84
2022-09-05T22:48:08.813Z,98699.94
2022-09-05T22:53:15.993Z,98697.19
2022-09-05T22:58:21.639Z,98687.50
2022-09-05T23:03:26.304Z,98677.44
2022-09-05T23:08:33.613Z,98680.59
2022-09-05T23:13:38.288Z,98682.06
2022-09-05T23:18:43.586Z,98664.38
2022-09-05T23:23:50.788Z,98653.03
2022-09-05T23:28:55.439Z,98662.75
2022-09-05T23:34:00.079Z,98655.59
2022-09-05T23:39:07.313Z,98656.03
2022-09-05T23:44:12.137Z,98642.59
2022-09-05T23:49:16.989Z,98640.72
2022-09-05T23:54:24.827Z,98648.91
2022-09-05T23:59:29.595Z,98634.63
